Time;durP1;ratioP1;P1;durP2;ratioP2;P2;SDS_P1;SDS_P2;PMS_P1;PMS_P2;Temp;Humidity;BMP_temperature;BMP_pressure;BME280_temperature;BME280_humidity;BME280_pressure;Samples;Min_cycle;Max_cycle;Signal;HPM_P1;HPM_P2
2023/10/21 00:01:40;;;;;;;14.00;11.37;;;10.80;99.90;;;;;;5069869;28;20195;-54
2023/10/21 00:04:07;;;;;;;11.03;10.00;;;10.90;99.90;;;;;;5067203;28;20200;-54
2023/10/21 00:06:34;;;;;;;11.73;10.30;;;10.80;99.90;;;;;;5067815;28;20290;-54
2023/10/21 00:09:01;;;;;;;11.23;9.93;;;10.90;99.90;;;;;;5068584;28;20199;-54
2023/10/21 00:11:28;;;;;;;11.90;10.80;;;10.90;99.90;;;;;;5070574;28;20196;-54
2023/10/21 00:13:55;;;;;;;10.67;9.70;;;10.80;99.90;;;;;;5069262;28;20204;-54
2023/10/21 00:16:25;;;;;;;10.23;9.30;;;10.80;99.90;;;;;;5062918;28;20223;-55
2023/10/21 00:18:52;;;;;;;8.87;8.17;;;10.80;99.90;;;;;;5072665;28;20225;-54
2023/10/21 00:21:19;;;;;;;9.03;8.33;;;10.80;99.90;;;;;;5066388;28;20200;-54
2023/10/21 00:23:46;;;;;;;10.80;9.80;;;10.70;99.90;;;;;;5074262;28;20558;-54
2023/10/21 00:26:13;;;;;;;10.73;9.73;;;10.70;99.90;;;;;;5072310;28;20308;-54
2023/10/21 00:28:40;;;;;;;8.43;7.80;;;10.70;99.90;;;;;;5073566;28;20200;-54
2023/10/21 00:31:07;;;;;;;8.27;7.67;;;10.80;99.90;;;;;;5070472;28;20212;-54
2023/10/21 00:33:35;;;;;;;7.40;6.67;;;10.80;99.90;;;;;;5072935;28;20247;-54
2023/10/21 00:36:03;;;;;;;7.60;7.07;;;10.70;99.90;;;;;;5070546;28;20198;-55
2023/10/21 00:38:30;;;;;;;7.83;7.23;;;10.80;99.90;;;;;;5072347;28;20307;-54
2023/10/21 00:41:01;;;;;;;7.60;7.00;;;10.80;99.90;;;;;;5073685;28;20251;-55
2023/10/21 00:43:35;;;;;;;6.87;6.37;;;10.70;99.90;;;;;;5073784;28;20210;-53
2023/10/21 00:46:10;;;;;;;6.07;5.63;;;10.70;99.90;;;;;;5072793;28;20342;-54
2023/10/21 00:48:39;;;;;;;7.63;6.90;;;10.70;99.90;;;;;;5073934;28;20762;-54
2023/10/21 00:51:06;;;;;;;7.93;7.23;;;10.60;99.90;;;;;;5071642;28;20569;-54
2023/10/21 00:53:34;;;;;;;7.90;7.20;;;10.60;99.90;;;;;;5073568;28;20285;-54
2023/10/21 00:56:03;;;;;;;8.87;7.97;;;10.70;99.90;;;;;;5072755;28;20203;-55
2023/10/21 00:58:32;;;;;;;6.97;6.47;;;10.70;99.90;;;;;;5073658;28;20245;-54
2023/10/21 01:01:01;;;;;;;7.17;6.57;;;10.70;99.90;;;;;;5073440;28;20626;-54
2023/10/21 01:03:29;;;;;;;5.67;5.17;;;10.70;99.90;;;;;;5071036;28;20784;-54
2023/10/21 01:05:57;;;;;;;7.37;6.70;;;10.70;99.90;;;;;;5071461;28;20203;-54
2023/10/21 01:08:24;;;;;;;7.20;6.70;;;10.70;99.90;;;;;;5072532;28;20269;-54
2023/10/21 01:10:51;;;;;;;6.67;6.17;;;10.70;99.90;;;;;;5072411;28;20265;-55
2023/10/21 01:13:18;;;;;;;7.97;7.37;;;10.70;99.90;;;;;;5071985;28;20207;-54
2023/10/21 01:15:45;;;;;;;7.07;6.57;;;10.80;99.90;;;;;;5072260;28;20645;-54
2023/10/21 01:18:13;;;;;;;7.10;6.57;;;10.80;99.90;;;;;;5069750;28;20228;-54
2023/10/21 01:20:41;;;;;;;6.60;6.03;;;10.70;99.90;;;;;;5073136;28;20228;-54
2023/10/21 01:23:14;;;;;;;6.63;6.03;;;10.70;99.90;;;;;;5071711;28;20667;-54
2023/10/21 01:25:41;;;;;;;6.00;5.57;;;10.60;99.90;;;;;;5068788;28;20198;-54
2023/10/21 01:28:08;;;;;;;7.17;6.60;;;10.60;99.90;;;;;;5070772;28;20710;-54
2023/10/21 01:30:35;;;;;;;7.30;6.70;;;10.60;99.90;;;;;;5072111;28;20250;-54
2023/10/21 01:33:02;;;;;;;8.07;7.27;;;10.60;99.90;;;;;;5071615;28;20204;-54
2023/10/21 01:35:29;;;;;;;6.13;5.73;;;10.60;99.90;;;;;;5070265;28;20249;-54
2023/10/21 01:37:56;;;;;;;6.20;5.70;;;10.60;99.90;;;;;;5071425;28;20220;-54
2023/10/21 01:40:24;;;;;;;6.00;5.60;;;10.60;99.90;;;;;;5072927;28;20644;-54
2023/10/21 01:42:52;;;;;;;9.23;8.33;;;10.60;99.90;;;;;;5071928;28;20218;-54
2023/10/21 01:45:19;;;;;;;7.73;7.03;;;10.60;99.90;;;;;;5072635;28;20208;-55
2023/10/21 01:47:46;;;;;;;8.80;8.03;;;10.60;99.90;;;;;;5071623;28;20782;-54
2023/10/21 01:50:13;;;;;;;8.20;7.07;;;10.60;99.90;;;;;;5071548;28;20768;-54
2023/10/21 01:52:40;;;;;;;9.10;8.17;;;10.70;99.90;;;;;;5072370;28;20230;-54
2023/10/21 01:55:08;;;;;;;9.87;8.83;;;10.70;99.90;;;;;;5072593;28;20229;-54
2023/10/21 01:57:37;;;;;;;10.70;8.23;;;10.70;99.90;;;;;;5070468;28;20706;-54
2023/10/21 02:00:08;;;;;;;9.10;8.20;;;10.70;99.90;;;;;;5070221;28;20220;-54
2023/10/21 02:02:35;;;;;;;11.63;10.43;;;10.70;99.90;;;;;;5069393;28;20220;-54
2023/10/21 02:05:04;;;;;;;10.43;9.33;;;10.70;99.90;;;;;;5072396;28;20241;-54
2023/10/21 02:07:31;;;;;;;9.47;8.30;;;10.70;99.90;;;;;;5071346;28;20254;-54
2023/10/21 02:09:58;;;;;;;7.67;6.97;;;10.60;99.90;;;;;;5070259;28;20189;-54
2023/10/21 02:12:25;;;;;;;7.80;7.07;;;10.60;99.90;;;;;;5072254;28;20230;-54
2023/10/21 02:14:53;;;;;;;8.73;7.90;;;10.60;99.90;;;;;;5066575;28;20258;-54
2023/10/21 02:17:20;;;;;;;7.30;6.63;;;10.60;99.90;;;;;;5066211;28;20224;-54
2023/10/21 02:19:47;;;;;;;7.73;7.03;;;10.60;99.90;;;;;;5069535;28;20278;-54
2023/10/21 02:22:14;;;;;;;7.47;6.87;;;10.50;99.90;;;;;;5070012;28;20579;-54
2023/10/21 02:24:41;;;;;;;7.83;7.13;;;10.50;99.90;;;;;;5069505;28;20201;-54
2023/10/21 02:27:09;;;;;;;6.00;5.57;;;10.50;99.90;;;;;;5067551;28;20240;-54
2023/10/21 02:29:37;;;;;;;6.63;6.13;;;10.60;99.90;;;;;;5067174;28;20196;-54
2023/10/21 02:32:06;;;;;;;6.80;6.30;;;10.50;99.90;;;;;;5070575;28;20203;-54
2023/10/21 02:34:33;;;;;;;6.53;6.03;;;10.40;99.90;;;;;;5070330;28;20614;-54
2023/10/21 02:37:00;;;;;;;6.03;5.50;;;10.50;99.90;;;;;;5068258;28;20679;-54
2023/10/21 02:39:27;;;;;;;6.47;5.97;;;10.50;99.90;;;;;;5062659;28;20269;-54
2023/10/21 02:41:54;;;;;;;5.83;5.43;;;10.50;99.90;;;;;;5067167;28;20652;-54
2023/10/21 02:44:21;;;;;;;5.13;4.80;;;10.50;99.90;;;;;;5067004;28;20244;-54
2023/10/21 02:46:48;;;;;;;4.90;4.53;;;10.50;99.90;;;;;;5069109;28;20312;-54
2023/10/21 02:49:16;;;;;;;4.73;4.43;;;10.50;99.90;;;;;;5068819;28;20279;-54
2023/10/21 02:51:43;;;;;;;5.80;5.27;;;10.50;99.90;;;;;;5071342;28;20204;-54
2023/10/21 02:54:10;;;;;;;4.40;4.20;;;10.40;99.90;;;;;;5069079;28;20301;-54
2023/10/21 02:56:41;;;;;;;4.73;4.33;;;10.50;99.90;;;;;;5069005;28;20773;-54
2023/10/21 02:59:08;;;;;;;4.03;3.80;;;10.50;99.90;;;;;;5065538;28;20590;-54
2023/10/21 03:01:35;;;;;;;4.23;4.03;;;10.50;99.90;;;;;;5068869;28;20228;-54
2023/10/21 03:04:02;;;;;;;4.30;4.03;;;10.50;99.90;;;;;;5067271;28;20197;-54
2023/10/21 03:06:31;;;;;;;4.97;4.50;;;10.50;99.90;;;;;;5066454;28;21784;-56
2023/10/21 03:08:57;;;;;;;4.63;4.33;;;10.60;99.90;;;;;;5068589;28;20203;-54
2023/10/21 03:11:24;;;;;;;6.53;4.37;;;10.60;99.90;;;;;;5069114;28;20200;-55
2023/10/21 03:13:52;;;;;;;5.00;4.70;;;10.60;99.90;;;;;;5065346;28;20207;-54
2023/10/21 03:16:20;;;;;;;4.47;4.17;;;10.60;99.90;;;;;;5056564;28;20223;-54
2023/10/21 03:18:47;;;;;;;5.03;4.73;;;10.60;99.90;;;;;;5065086;28;20717;-54
2023/10/21 03:21:14;;;;;;;4.07;3.87;;;10.60;99.90;;;;;;5066505;28;20216;-54
2023/10/21 03:23:42;;;;;;;6.03;3.90;;;10.60;99.90;;;;;;5063312;28;20196;-54
2023/10/21 03:26:09;;;;;;;3.77;3.57;;;10.70;99.90;;;;;;5061425;28;20562;-54
2023/10/21 03:28:38;;;;;;;3.70;3.60;;;10.70;99.90;;;;;;5068103;28;20624;-54
2023/10/21 03:31:05;;;;;;;3.63;3.43;;;10.70;99.90;;;;;;5067562;28;20260;-54
2023/10/21 03:33:33;;;;;;;3.70;3.50;;;10.60;99.90;;;;;;5066276;28;20201;-54
2023/10/21 03:36:05;;;;;;;3.60;3.40;;;10.60;99.90;;;;;;5068661;28;20156;-54
2023/10/21 03:38:33;;;;;;;3.57;3.37;;;10.60;99.90;;;;;;5068066;28;20458;-54
2023/10/21 03:41:06;;;;;;;2.97;2.87;;;10.60;99.90;;;;;;5068081;28;20288;-54
2023/10/21 03:43:34;;;;;;;6.63;6.03;;;10.60;99.90;;;;;;5068246;28;20733;-54
2023/10/21 03:46:03;;;;;;;9.13;8.47;;;10.60;99.90;;;;;;5065751;28;20659;-54
2023/10/21 03:48:30;;;;;;;6.73;6.23;;;10.60;99.90;;;;;;5068199;28;20550;-54
2023/10/21 03:51:05;;;;;;;4.50;4.10;;;10.50;99.90;;;;;;5070367;28;20200;-54
2023/10/21 03:53:32;;;;;;;14.77;13.37;;;10.60;99.90;;;;;;5069025;28;20208;-54
2023/10/21 03:56:05;;;;;;;11.60;10.60;;;10.60;99.90;;;;;;5067088;28;20223;-54
2023/10/21 03:58:32;;;;;;;9.90;9.13;;;10.60;99.90;;;;;;5069895;28;20262;-54
2023/10/21 04:01:03;;;;;;;9.33;8.43;;;10.60;99.90;;;;;;5070397;28;20224;-54
2023/10/21 04:03:30;;;;;;;4.70;4.40;;;10.60;99.90;;;;;;5074191;28;20717;-54
2023/10/21 04:06:01;;;;;;;4.80;4.50;;;10.70;99.90;;;;;;5074122;28;20200;-54
2023/10/21 04:08:29;;;;;;;4.80;4.40;;;10.70;99.90;;;;;;5062019;28;20249;-54
2023/10/21 04:10:56;;;;;;;5.47;5.07;;;10.70;99.90;;;;;;5070197;28;20623;-54
2023/10/21 04:13:24;;;;;;;5.77;5.37;;;10.70;99.90;;;;;;5069797;28;20556;-54
2023/10/21 04:15:51;;;;;;;6.03;5.50;;;10.70;99.90;;;;;;5069333;28;20709;-54
2023/10/21 04:18:18;;;;;;;6.40;6.00;;;10.70;99.90;;;;;;5066284;28;20212;-54
2023/10/21 04:20:45;;;;;;;6.27;5.80;;;10.70;99.90;;;;;;5067373;28;20216;-54
2023/10/21 04:23:13;;;;;;;6.33;5.93;;;10.70;99.90;;;;;;5059988;28;20209;-54
2023/10/21 04:25:40;;;;;;;5.97;5.57;;;10.70;99.90;;;;;;5060812;28;20299;-54
2023/10/21 04:28:07;;;;;;;5.93;5.37;;;10.70;99.90;;;;;;5061631;28;20224;-54
2023/10/21 04:30:36;;;;;;;7.67;7.07;;;10.70;99.90;;;;;;5060982;28;20193;-55
2023/10/21 04:33:04;;;;;;;5.90;5.50;;;10.70;99.90;;;;;;5059656;28;20747;-54
2023/10/21 04:35:32;;;;;;;7.60;7.00;;;10.70;99.90;;;;;;5060597;28;20829;-54
2023/10/21 04:38:00;;;;;;;7.43;6.83;;;10.80;99.90;;;;;;5060026;28;20227;-54
2023/10/21 04:40:27;;;;;;;7.93;6.77;;;10.80;99.90;;;;;;5060799;28;20691;-54
2023/10/21 04:42:54;;;;;;;7.47;6.77;;;10.80;99.90;;;;;;5059882;28;20258;-54
2023/10/21 04:45:21;;;;;;;6.73;6.23;;;10.90;99.90;;;;;;5061928;28;20212;-54
2023/10/21 04:47:50;;;;;;;7.57;6.87;;;10.90;99.90;;;;;;5066991;28;20273;-54
2023/10/21 04:50:17;;;;;;;6.87;6.17;;;10.90;99.90;;;;;;5070013;28;20200;-54
2023/10/21 04:52:45;;;;;;;6.17;5.80;;;10.90;99.90;;;;;;5069439;28;20205;-54
2023/10/21 04:55:12;;;;;;;6.87;6.37;;;10.90;99.90;;;;;;5070226;28;20201;-54
2023/10/21 04:57:39;;;;;;;7.53;7.03;;;10.90;99.90;;;;;;5069995;28;20281;-54
2023/10/21 05:00:08;;;;;;;6.73;6.10;;;10.90;99.90;;;;;;5070545;28;20263;-54
2023/10/21 05:02:35;;;;;;;7.03;6.47;;;10.90;99.90;;;;;;5072935;28;20243;-54
2023/10/21 05:05:03;;;;;;;6.77;6.27;;;10.90;99.90;;;;;;5072442;28;20209;-53
2023/10/21 05:07:31;;;;;;;8.00;7.40;;;10.90;99.90;;;;;;5073155;28;20231;-54
2023/10/21 05:09:58;;;;;;;6.47;6.03;;;10.90;99.90;;;;;;5073371;28;20203;-54
2023/10/21 05:12:25;;;;;;;7.23;6.67;;;10.90;99.90;;;;;;5065652;28;20250;-54
2023/10/21 05:14:52;;;;;;;9.70;8.83;;;10.90;99.90;;;;;;5071807;28;20330;-54
2023/10/21 05:17:19;;;;;;;8.73;8.13;;;10.90;99.90;;;;;;5071371;28;20306;-54
2023/10/21 05:19:46;;;;;;;10.40;9.50;;;10.90;99.90;;;;;;5067881;28;20204;-54
2023/10/21 05:22:15;;;;;;;7.03;6.47;;;11.00;99.90;;;;;;5073368;28;20265;-54
2023/10/21 05:24:42;;;;;;;9.17;8.37;;;11.00;99.90;;;;;;5072838;28;20204;-54
2023/10/21 05:27:09;;;;;;;8.60;7.97;;;11.00;99.90;;;;;;5073126;28;20223;-54
2023/10/21 05:29:36;;;;;;;8.17;7.57;;;11.00;99.90;;;;;;5072168;28;20292;-54
2023/10/21 05:32:03;;;;;;;7.70;7.10;;;11.00;99.90;;;;;;5072868;28;20572;-54
2023/10/21 05:34:31;;;;;;;8.07;7.37;;;11.00;99.90;;;;;;5072712;28;20270;-54
2023/10/21 05:36:58;;;;;;;8.87;8.20;;;11.10;99.90;;;;;;5073022;28;20223;-54
2023/10/21 05:39:26;;;;;;;7.70;7.00;;;11.10;99.90;;;;;;5071683;28;20253;-54
2023/10/21 05:41:53;;;;;;;9.00;7.63;;;11.10;99.90;;;;;;5072851;28;20274;-54
2023/10/21 05:44:20;;;;;;;6.97;6.33;;;11.00;99.90;;;;;;5072417;28;20209;-54
2023/10/21 05:46:47;;;;;;;7.47;6.80;;;11.00;99.90;;;;;;5072710;28;20230;-54
2023/10/21 05:49:14;;;;;;;7.07;6.57;;;11.10;99.90;;;;;;5070306;28;20202;-54
2023/10/21 05:51:41;;;;;;;7.50;6.90;;;11.10;99.90;;;;;;5072596;28;20203;-54
2023/10/21 05:54:08;;;;;;;7.73;7.03;;;11.10;99.90;;;;;;5072123;28;20251;-54
2023/10/21 05:56:36;;;;;;;6.40;6.00;;;11.10;99.90;;;;;;5072556;28;20277;-54
2023/10/21 05:59:04;;;;;;;7.07;5.97;;;11.10;99.90;;;;;;5071410;28;20620;-54
2023/10/21 06:01:31;;;;;;;10.10;8.97;;;11.10;99.90;;;;;;5072339;28;20220;-54
2023/10/21 06:03:58;;;;;;;9.00;8.10;;;11.20;99.90;;;;;;5072359;28;20262;-54
2023/10/21 06:06:25;;;;;;;11.17;9.80;;;11.20;99.90;;;;;;5071433;28;20238;-54
2023/10/21 06:08:52;;;;;;;9.87;8.87;;;11.20;99.90;;;;;;5071226;28;20208;-54
2023/10/21 06:11:19;;;;;;;8.23;7.47;;;11.20;99.90;;;;;;5070885;28;20210;-54
2023/10/21 06:13:48;;;;;;;7.33;6.73;;;11.20;99.90;;;;;;5071449;28;20197;-54
2023/10/21 06:16:15;;;;;;;8.33;7.60;;;11.20;99.90;;;;;;5072058;28;20311;-54
2023/10/21 06:18:42;;;;;;;7.87;7.20;;;11.20;99.90;;;;;;5070462;28;20200;-54
2023/10/21 06:21:09;;;;;;;9.33;8.40;;;11.20;99.90;;;;;;5071802;28;20223;-54
2023/10/21 06:23:36;;;;;;;11.33;7.93;;;11.30;99.90;;;;;;5071796;28;20261;-54
2023/10/21 06:26:03;;;;;;;7.93;7.27;;;11.30;99.90;;;;;;5071924;28;20621;-55
2023/10/21 06:28:30;;;;;;;6.63;6.10;;;11.30;99.90;;;;;;5071102;28;20200;-54
2023/10/21 06:31:06;;;;;;;6.63;5.70;;;11.40;99.90;;;;;;5068896;28;20676;-54
2023/10/21 06:33:34;;;;;;;4.63;4.43;;;11.50;99.90;;;;;;5071518;28;20232;-54
2023/10/21 06:36:03;;;;;;;7.53;6.70;;;11.50;99.90;;;;;;5071761;28;20200;-54
2023/10/21 06:38:30;;;;;;;6.10;5.70;;;11.60;99.90;;;;;;5063970;28;20211;-54
2023/10/21 06:40:57;;;;;;;5.37;4.97;;;11.60;99.90;;;;;;5071091;28;20269;-54
2023/10/21 06:43:24;;;;;;;4.93;4.63;;;11.70;99.90;;;;;;5071351;28;20290;-54
2023/10/21 06:45:52;;;;;;;5.17;4.80;;;11.80;99.90;;;;;;5071614;28;20274;-54
2023/10/21 06:48:21;;;;;;;5.33;4.83;;;11.90;99.90;;;;;;5069749;28;20291;-54
2023/10/21 06:50:48;;;;;;;5.63;5.20;;;12.00;99.90;;;;;;5069465;28;20276;-54
2023/10/21 06:53:15;;;;;;;5.23;4.87;;;12.00;99.90;;;;;;5070979;28;20209;-54
2023/10/21 06:55:43;;;;;;;4.80;4.47;;;12.10;99.90;;;;;;5071398;28;20344;-54
2023/10/21 06:58:10;;;;;;;12.47;5.83;;;12.20;99.90;;;;;;5071375;28;20315;-54
2023/10/21 07:00:38;;;;;;;5.33;4.83;;;12.20;99.90;;;;;;5069968;28;20246;-54
2023/10/21 07:03:05;;;;;;;5.60;5.13;;;12.30;99.90;;;;;;5070822;28;20254;-54
2023/10/21 07:05:34;;;;;;;6.67;5.43;;;12.20;99.90;;;;;;5071336;28;20209;-54
2023/10/21 07:08:01;;;;;;;5.90;4.70;;;12.20;99.90;;;;;;5069956;28;20230;-54
2023/10/21 07:10:30;;;;;;;4.93;4.33;;;12.20;99.90;;;;;;5068073;28;20552;-54
2023/10/21 07:12:58;;;;;;;5.77;5.40;;;12.20;99.90;;;;;;5069579;28;20667;-54
2023/10/21 07:15:27;;;;;;;6.23;5.63;;;12.20;99.90;;;;;;5071005;28;20197;-54
2023/10/21 07:17:55;;;;;;;6.03;5.43;;;12.30;99.90;;;;;;5071086;28;20221;-54
2023/10/21 07:20:22;;;;;;;7.33;6.70;;;12.40;99.90;;;;;;5069706;28;20208;-54
2023/10/21 07:22:50;;;;;;;6.47;5.97;;;12.30;99.90;;;;;;5070670;28;20204;-54
2023/10/21 07:25:18;;;;;;;7.17;6.60;;;12.30;99.90;;;;;;5071195;28;20204;-54
2023/10/21 07:27:45;;;;;;;6.83;6.33;;;12.30;99.90;;;;;;5070978;28;20328;-55
2023/10/21 07:30:13;;;;;;;5.80;5.23;;;12.30;99.90;;;;;;5068710;28;20579;-54
2023/10/21 07:32:40;;;;;;;6.07;5.67;;;12.30;99.90;;;;;;5067264;28;20638;-54
2023/10/21 07:35:07;;;;;;;5.27;4.80;;;12.40;99.90;;;;;;5070603;28;20671;-54
2023/10/21 07:37:34;;;;;;;5.63;5.17;;;12.40;99.90;;;;;;5069789;28;20245;-54
2023/10/21 07:40:05;;;;;;;5.00;4.53;;;12.30;99.90;;;;;;5069661;28;20201;-55
2023/10/21 07:42:32;;;;;;;6.23;5.40;;;12.30;99.90;;;;;;5063115;28;20705;-55
2023/10/21 07:44:59;;;;;;;6.33;5.80;;;12.30;99.90;;;;;;5069942;28;20204;-54
2023/10/21 07:47:26;;;;;;;7.40;6.90;;;12.20;99.90;;;;;;5066808;28;20558;-56
2023/10/21 07:49:54;;;;;;;6.73;6.23;;;12.10;99.90;;;;;;5069019;28;20463;-54
2023/10/21 07:52:21;;;;;;;7.60;7.00;;;12.10;99.90;;;;;;5069737;28;20241;-56
2023/10/21 07:54:48;;;;;;;7.70;7.10;;;12.10;99.90;;;;;;5070263;28;20297;-53
2023/10/21 07:57:16;;;;;;;7.67;6.97;;;12.10;99.90;;;;;;5066760;28;20277;-54
2023/10/21 07:59:43;;;;;;;7.20;6.70;;;12.10;99.90;;;;;;5068896;28;20196;-55
2023/10/21 08:02:10;;;;;;;8.30;7.50;;;12.00;99.90;;;;;;5069792;28;20715;-54
2023/10/21 08:04:37;;;;;;;9.40;8.43;;;12.00;99.90;;;;;;5070498;28;20285;-54
2023/10/21 08:07:05;;;;;;;11.23;8.90;;;12.00;99.90;;;;;;5067070;28;20227;-54
2023/10/21 08:09:31;;;;;;;9.13;8.33;;;12.00;99.90;;;;;;5062509;28;20284;-54
2023/10/21 08:11:59;;;;;;;9.43;8.50;;;12.00;99.90;;;;;;5069660;28;20672;-53
2023/10/21 08:14:30;;;;;;;43.33;19.90;;;12.00;99.90;;;;;;5070379;28;20197;-54
2023/10/21 08:16:57;;;;;;;93.67;35.53;;;12.10;99.90;;;;;;5061153;28;20226;-54
2023/10/21 08:19:24;;;;;;;18.10;11.77;;;12.10;99.90;;;;;;5070382;28;20199;-54
2023/10/21 08:21:51;;;;;;;8.20;7.50;;;12.10;99.90;;;;;;5070433;28;20232;-53
2023/10/21 08:24:18;;;;;;;7.00;6.50;;;12.20;99.90;;;;;;5070409;28;20614;-54
2023/10/21 08:26:45;;;;;;;9.53;7.83;;;12.20;99.90;;;;;;5068583;28;20267;-53
2023/10/21 08:29:12;;;;;;;15.73;11.63;;;12.30;99.90;;;;;;5061285;28;20630;-52
2023/10/21 08:31:41;;;;;;;9.90;8.90;;;12.40;99.90;;;;;;5070380;28;20253;-53
2023/10/21 08:34:12;;;;;;;9.60;8.90;;;12.50;99.90;;;;;;5070132;28;20681;-53
2023/10/21 08:36:40;;;;;;;10.33;9.53;;;12.50;99.90;;;;;;5067685;28;20224;-53
2023/10/21 08:39:08;;;;;;;10.77;9.70;;;12.60;99.90;;;;;;5071429;28;20299;-53
2023/10/21 08:41:37;;;;;;;13.13;11.93;;;12.70;99.90;;;;;;5074221;28;20217;-52
2023/10/21 08:44:06;;;;;;;12.23;11.03;;;12.80;99.90;;;;;;5073795;28;20624;-52
2023/10/21 08:46:34;;;;;;;10.57;9.67;;;13.00;99.90;;;;;;5069146;28;20224;-53
2023/10/21 08:49:04;;;;;;;10.20;9.37;;;13.20;99.90;;;;;;5069310;28;20203;-54
2023/10/21 08:51:33;;;;;;;11.03;9.30;;;13.40;99.90;;;;;;5066085;28;20684;-55
2023/10/21 08:54:03;;;;;;;7.30;6.73;;;13.70;99.90;;;;;;5073643;28;20675;-55
2023/10/21 08:56:30;;;;;;;8.10;7.47;;;13.90;99.90;;;;;;5073790;28;20228;-55
2023/10/21 08:58:57;;;;;;;8.30;7.60;;;14.00;99.90;;;;;;5065479;28;20202;-53
2023/10/21 09:01:24;;;;;;;8.73;8.03;;;14.20;99.90;;;;;;5071486;28;20235;-53
2023/10/21 09:03:52;;;;;;;7.37;6.83;;;14.30;99.90;;;;;;5073339;28;20201;-53
2023/10/21 09:06:21;;;;;;;6.73;6.23;;;14.40;99.90;;;;;;5072494;28;20305;-53
2023/10/21 09:08:49;;;;;;;8.27;7.73;;;14.40;99.90;;;;;;5087155;22;20307;-53
2023/10/21 09:11:18;;;;;;;7.83;7.23;;;14.40;99.90;;;;;;5084192;28;20203;-53
2023/10/21 09:13:45;;;;;;;5.70;5.37;;;14.50;99.90;;;;;;5072283;28;20197;-53
2023/10/21 09:16:24;;;;;;;6.57;6.15;;;14.40;99.90;;;;;;5072101;28;20457;-53
2023/10/21 09:19:00;;;;;;;5.63;5.33;;;14.40;99.90;;;;;;5070990;28;20253;-55
2023/10/21 09:21:38;;;;;;;4.70;4.40;;;14.30;99.90;;;;;;5071466;28;21003;-55
2023/10/21 09:24:06;;;;;;;6.03;5.53;;;14.40;99.90;;;;;;5072357;28;20212;-55
2023/10/21 09:26:33;;;;;;;5.53;5.03;;;14.30;99.90;;;;;;5069731;28;20201;-53
2023/10/21 09:29:10;;;;;;;4.67;4.30;;;14.30;99.90;;;;;;5071367;28;20259;-54
2023/10/21 09:31:47;;;;;;;4.60;4.40;;;14.40;99.90;;;;;;5062663;28;20189;-53
2023/10/21 09:34:25;;;;;;;4.60;4.37;;;14.50;99.90;;;;;;5064603;28;20644;-53
2023/10/21 09:36:56;;;;;;;3.67;3.00;;;14.60;99.90;;;;;;5067616;28;20197;-53
2023/10/21 09:39:24;;;;;;;3.27;2.97;;;14.70;99.90;;;;;;5072018;28;20668;-53
2023/10/21 09:41:52;;;;;;;3.30;3.20;;;14.80;99.90;;;;;;5072653;28;20221;-53
2023/10/21 09:44:19;;;;;;;3.97;3.37;;;14.90;99.90;;;;;;5073171;28;20203;-53
2023/10/21 09:46:49;;;;;;;4.17;3.97;;;15.20;99.90;;;;;;5073949;28;20276;-53
2023/10/21 09:49:16;;;;;;;4.43;3.27;;;15.50;99.90;;;;;;5074085;28;20204;-52
2023/10/21 09:51:53;;;;;;;3.37;3.10;;;15.90;99.90;;;;;;5077395;28;20591;-53
2023/10/21 09:54:27;;;;;;;2.97;2.87;;;16.10;99.90;;;;;;5070184;28;20205;-53
2023/10/21 09:56:55;;;;;;;3.20;3.00;;;16.70;99.90;;;;;;5072074;28;20197;-52
2023/10/21 09:59:23;;;;;;;2.97;2.87;;;17.10;99.90;;;;;;5070964;28;20239;-52
2023/10/21 10:01:52;;;;;;;3.23;3.00;;;17.50;99.90;;;;;;5072496;28;20221;-53
2023/10/21 10:04:22;;;;;;;2.57;2.47;;;17.60;99.90;;;;;;5070362;28;20232;-53
2023/10/21 10:06:56;;;;;;;2.60;2.50;;;17.60;99.90;;;;;;5071940;28;20229;-53
2023/10/21 10:09:26;;;;;;;2.57;2.47;;;17.40;99.90;;;;;;5072105;28;20645;-53
2023/10/21 10:11:58;;;;;;;5.07;3.40;;;17.30;99.90;;;;;;5073379;28;20204;-53
2023/10/21 10:14:26;;;;;;;3.07;2.97;;;17.30;99.90;;;;;;5070190;28;20204;-52
2023/10/21 10:16:53;;;;;;;3.50;3.30;;;17.10;99.90;;;;;;5070299;28;20204;-52
2023/10/21 10:19:38;;;;;;;3.23;3.03;;;17.30;99.90;;;;;;5065564;28;20193;-52
2023/10/21 10:22:30;;;;;;;3.00;2.80;;;17.40;99.90;;;;;;5080678;28;20307;-52
2023/10/21 10:25:10;;;;;;;3.57;3.37;;;17.50;99.90;;;;;;5071751;28;20614;-52
2023/10/21 10:27:38;;;;;;;4.40;4.20;;;17.60;99.90;;;;;;5075559;28;20244;-53
2023/10/21 10:30:14;;;;;;;3.37;3.17;;;17.60;99.90;;;;;;5068152;28;20270;-52
2023/10/21 10:32:46;;;;;;;6.47;5.80;;;17.50;99.90;;;;;;5074889;28;20258;-52
2023/10/21 10:35:29;;;;;;;5.60;4.70;;;17.50;99.90;;;;;;5071848;28;20664;-53
2023/10/21 10:37:59;;;;;;;4.40;4.03;;;17.40;99.90;;;;;;5071663;28;20224;-53
2023/10/21 10:40:35;;;;;;;3.53;3.33;;;17.50;99.90;;;;;;5070158;28;20297;-52
2023/10/21 10:43:03;;;;;;;3.07;2.97;;;17.70;99.90;;;;;;5071259;28;20217;-53
2023/10/21 10:45:32;;;;;;;3.40;3.13;;;17.90;99.90;;;;;;5071720;28;20291;-53
2023/10/21 10:48:02;;;;;;;2.87;2.67;;;17.90;99.90;;;;;;5070733;28;20221;-58
2023/10/21 10:50:29;;;;;;;2.63;2.53;;;17.80;99.90;;;;;;5071285;28;20634;-58
2023/10/21 10:52:56;;;;;;;3.50;3.40;;;17.60;99.90;;;;;;5070520;28;20194;-55
2023/10/21 10:55:23;;;;;;;4.10;3.80;;;17.20;99.90;;;;;;5071401;28;20247;-55
2023/10/21 10:57:52;;;;;;;2.27;2.10;;;17.30;99.90;;;;;;5071329;28;20225;-55
2023/10/21 11:00:25;;;;;;;1.50;1.40;;;17.20;99.90;;;;;;5071137;28;20205;-55
2023/10/21 11:02:53;;;;;;;1.67;1.20;;;16.90;99.90;;;;;;5072927;28;20282;-54
2023/10/21 11:05:21;;;;;;;3.53;1.63;;;16.70;99.90;;;;;;5070566;28;20239;-55
2023/10/21 11:07:48;;;;;;;1.17;0.80;;;16.70;99.90;;;;;;5070839;28;20257;-55
2023/10/21 11:10:21;;;;;;;0.90;0.90;;;16.70;99.90;;;;;;5071302;28;20212;-55
2023/10/21 11:12:49;;;;;;;0.70;0.70;;;16.70;99.90;;;;;;5070929;28;20189;-55
2023/10/21 11:15:18;;;;;;;0.67;0.67;;;16.70;99.90;;;;;;5070970;28;20209;-55
2023/10/21 11:17:46;;;;;;;0.73;0.40;;;16.60;99.90;;;;;;5070328;28;20326;-55
2023/10/21 11:20:14;;;;;;;1.13;0.40;;;16.50;99.90;;;;;;5070803;28;20197;-55
2023/10/21 11:22:42;;;;;;;0.47;0.30;;;16.50;99.90;;;;;;5070502;28;20311;-57
2023/10/21 11:25:09;;;;;;;1.13;0.30;;;16.60;99.90;;;;;;5070984;28;20229;-55
2023/10/21 11:27:38;;;;;;;0.10;0.10;;;16.60;99.90;;;;;;5071029;28;20239;-55
2023/10/21 11:30:08;;;;;;;0.20;0.20;;;16.60;99.90;;;;;;5070263;28;20647;-56
2023/10/21 11:32:37;;;;;;;0.10;0.10;;;16.60;99.90;;;;;;5062705;28;20580;-55
2023/10/21 11:35:05;;;;;;;0.47;0.20;;;16.60;99.90;;;;;;5070754;28;20608;-55
2023/10/21 11:37:33;;;;;;;0.53;0.20;;;16.60;99.90;;;;;;5070055;28;20290;-55
2023/10/21 11:40:00;;;;;;;0.23;0.23;;;16.50;99.90;;;;;;5070820;28;20337;-52
2023/10/21 11:42:27;;;;;;;1.10;0.20;;;16.40;99.90;;;;;;5069450;28;20799;-53
2023/10/21 11:44:58;;;;;;;0.63;0.23;;;16.50;99.90;;;;;;5068652;28;20584;-53
2023/10/21 11:47:27;;;;;;;0.20;0.20;;;16.50;99.90;;;;;;5068772;28;20229;-53
2023/10/21 11:49:56;;;;;;;0.30;0.30;;;16.50;99.90;;;;;;5068313;28;20258;-53
2023/10/21 11:52:25;;;;;;;0.30;0.20;;;16.40;99.90;;;;;;5069268;28;20246;-53
2023/10/21 11:58:19;;;;;;;0.20;0.20;;;16.30;99.90;;;;;;5069597;28;20850;-53
2023/10/21 12:11:52;;;;;;;0.50;0.50;;;15.70;99.90;;;;;;5073700;28;20257;-53
2023/10/21 12:17:29;;;;;;;0.47;0.47;;;15.60;99.90;;;;;;5070840;28;20710;-52
2023/10/21 12:20:24;;;;;;;1.07;0.40;;;15.40;99.90;;;;;;5069400;28;20572;-53
2023/10/21 12:26:17;;;;;;;0.53;0.27;;;15.10;99.90;;;;;;5080198;28;20216;-53
2023/10/21 12:39:56;;;;;;;1.17;0.37;;;14.60;99.90;;;;;;5064421;28;20192;-54
2023/10/21 12:42:26;;;;;;;0.47;0.47;;;14.70;99.90;;;;;;5079552;28;20220;-54
2023/10/21 12:44:54;;;;;;;1.40;0.30;;;14.70;99.90;;;;;;5088137;28;20659;-57
2023/10/21 12:47:22;;;;;;;1.80;0.37;;;14.60;99.90;;;;;;5088019;28;20711;-54
2023/10/21 12:49:52;;;;;;;2.30;0.60;;;14.60;99.90;;;;;;5088137;28;20215;-54
2023/10/21 12:52:19;;;;;;;2.33;0.40;;;14.50;99.90;;;;;;5080050;28;20224;-54
2023/10/21 12:54:46;;;;;;;0.20;0.20;;;14.40;99.90;;;;;;5074125;28;20302;-54
2023/10/21 12:57:14;;;;;;;0.97;0.97;;;14.30;99.90;;;;;;5085184;28;20634;-54
2023/10/21 12:59:41;;;;;;;0.40;0.20;;;14.30;99.90;;;;;;5081842;28;20759;-54
2023/10/21 13:02:08;;;;;;;1.47;1.03;;;14.30;99.90;;;;;;5070983;28;20267;-54
2023/10/21 13:04:37;;;;;;;0.47;0.30;;;14.20;99.90;;;;;;5081823;28;20197;-54
2023/10/21 13:07:06;;;;;;;0.70;0.60;;;14.10;99.90;;;;;;5071462;28;20217;-54
2023/10/21 13:09:33;;;;;;;0.20;0.20;;;14.00;99.90;;;;;;5062809;28;20271;-54
2023/10/21 13:12:09;;;;;;;0.67;0.30;;;14.00;99.90;;;;;;5067474;28;20275;-54
2023/10/21 13:14:36;;;;;;;0.60;0.40;;;14.00;99.90;;;;;;5075980;28;20201;-54
2023/10/21 13:17:07;;;;;;;0.53;0.53;;;14.00;99.90;;;;;;5063221;28;20861;-54
2023/10/21 13:19:34;;;;;;;0.60;0.60;;;14.00;99.90;;;;;;5079396;28;20192;-54
2023/10/21 13:22:05;;;;;;;0.50;0.50;;;13.90;99.90;;;;;;5087541;28;20731;-54
2023/10/21 13:24:34;;;;;;;1.47;1.07;;;14.00;99.90;;;;;;5086189;28;20225;-53